Time;durP1;ratioP1;P1;durP2;ratioP2;P2;SDS_P1;SDS_P2;PMS_P1;PMS_P2;Temp;Humidity;BMP_temperature;BMP_pressure;BME280_temperature;BME280_humidity;BME280_pressure;Samples;Min_cycle;Max_cycle;Signal;HPM_P1;HPM_P2
2021/01/30 00:01:19;;;;;;;30.05;6.53;;;;;;;7.85;100.00;100122.19;5224355;28;20032;-64
2021/01/30 00:03:49;;;;;;;11.73;5.40;;;;;;;7.89;100.00;100128.88;5211424;28;20025;-63
2021/01/30 00:06:20;;;;;;;18.33;5.90;;;;;;;7.90;100.00;100119.03;5222452;28;20040;-64
2021/01/30 00:08:50;;;;;;;18.35;5.70;;;;;;;7.91;100.00;100116.19;5224078;28;20047;-64
2021/01/30 00:11:21;;;;;;;21.67;5.63;;;;;;;7.93;100.00;100122.19;5224293;28;20400;-64
2021/01/30 00:13:51;;;;;;;17.65;4.95;;;;;;;7.90;100.00;100108.34;5222895;28;20570;-64
2021/01/30 00:16:21;;;;;;;22.90;5.35;;;;;;;7.81;100.00;100115.50;5223742;28;20658;-62
2021/01/30 00:18:52;;;;;;;19.63;5.43;;;;;;;7.79;100.00;100110.34;5216591;28;20528;-64
2021/01/30 00:21:22;;;;;;;19.95;6.20;;;;;;;7.78;100.00;100113.16;5213291;28;20818;-64
2021/01/30 00:23:53;;;;;;;27.20;5.85;;;;;;;7.70;100.00;100114.00;5222354;28;20163;-64
2021/01/30 00:26:23;;;;;;;19.60;6.88;;;;;;;7.66;100.00;100114.50;5223826;28;20028;-64
2021/01/30 00:28:54;;;;;;;30.70;6.55;;;;;;;7.67;100.00;100111.66;5222693;28;20087;-63
2021/01/30 00:31:24;;;;;;;22.70;7.20;;;;;;;7.70;100.00;100121.19;5224210;28;20380;-65
2021/01/30 00:33:55;;;;;;;26.23;7.30;;;;;;;7.61;100.00;100120.31;5222120;28;20025;-64
2021/01/30 00:36:25;;;;;;;26.88;7.55;;;;;;;7.55;100.00;100117.50;5223940;28;20378;-63
2021/01/30 00:38:56;;;;;;;23.35;6.90;;;;;;;7.59;100.00;100116.16;5222949;28;20021;-64
2021/01/30 00:41:26;;;;;;;32.65;8.80;;;;;;;7.47;100.00;100120.97;5223370;28;20060;-62
2021/01/30 00:43:57;;;;;;;28.52;8.35;;;;;;;7.41;100.00;100114.44;5222243;28;20100;-64
2021/01/30 00:46:29;;;;;;;26.70;8.43;;;;;;;7.42;100.00;100112.63;5223319;28;20035;-64
2021/01/30 00:48:59;;;;;;;34.33;9.40;;;;;;;7.38;100.00;100116.59;5222888;28;20082;-63
2021/01/30 00:51:29;;;;;;;25.63;7.57;;;;;;;7.34;100.00;100120.63;5222855;28;20694;-65
2021/01/30 00:54:00;;;;;;;25.38;7.68;;;;;;;7.31;100.00;100108.44;5221979;28;20108;-64
2021/01/30 00:56:30;;;;;;;16.90;6.15;;;;;;;7.27;100.00;100109.75;5223247;28;20747;-63
2021/01/30 00:59:01;;;;;;;18.65;5.57;;;;;;;7.20;100.00;100109.56;5222928;28;20503;-64
2021/01/30 01:01:39;;;;;;;13.23;4.57;;;;;;;7.13;100.00;100110.34;5222708;28;20037;-63
2021/01/30 01:04:09;;;;;;;12.48;5.13;;;;;;;7.08;100.00;100112.69;5207950;28;20033;-63
2021/01/30 01:06:40;;;;;;;11.52;4.55;;;;;;;7.07;100.00;100121.69;5223605;28;20419;-63
2021/01/30 01:09:11;;;;;;;17.70;5.38;;;;;;;6.98;100.00;100120.84;5222184;28;20060;-64
2021/01/30 01:11:44;;;;;;;15.27;5.55;;;;;;;6.98;100.00;100119.00;5221831;28;20378;-64
2021/01/30 01:14:16;;;;;;;11.38;5.25;;;;;;;6.98;100.00;100120.84;5221306;28;20108;-61
2021/01/30 01:16:47;;;;;;;18.45;5.80;;;;;;;6.97;100.00;100122.66;5222496;28;20048;-62
2021/01/30 01:19:18;;;;;;;21.50;6.22;;;;;;;7.04;100.00;100130.84;5214369;28;20418;-63
2021/01/30 01:21:50;;;;;;;26.50;9.35;;;;;;;6.99;100.00;100123.34;5215121;28;20480;-64
2021/01/30 01:24:22;;;;;;;34.65;12.55;;;;;;;6.92;100.00;100127.63;5221026;28;20520;-62
2021/01/30 01:26:53;;;;;;;33.85;13.52;;;;;;;6.80;100.00;100128.09;5222472;28;20485;-63
2021/01/30 01:29:23;;;;;;;39.80;12.60;;;;;;;6.77;100.00;100139.03;5221885;28;20035;-63
2021/01/30 01:31:55;;;;;;;34.03;10.98;;;;;;;6.70;100.00;100141.53;5222419;28;20025;-64
2021/01/30 01:34:29;;;;;;;24.70;10.43;;;;;;;6.59;100.00;100142.63;5221447;28;20345;-64
2021/01/30 01:37:04;;;;;;;32.17;10.35;;;;;;;6.60;100.00;100135.47;5222679;28;20051;-63
2021/01/30 01:39:35;;;;;;;30.92;10.60;;;;;;;6.55;100.00;100141.28;5221942;28;20098;-64
2021/01/30 01:42:10;;;;;;;32.38;11.20;;;;;;;6.46;100.00;100135.03;5222322;28;20481;-64
2021/01/30 01:44:42;;;;;;;30.17;10.85;;;;;;;6.43;100.00;100135.38;5220884;28;20135;-64
2021/01/30 01:47:21;;;;;;;28.02;8.50;;;;;;;6.45;100.00;100132.53;5222212;28;20021;-63
2021/01/30 01:49:54;;;;;;;22.92;8.15;;;;;;;6.44;100.00;100129.06;5221304;28;20033;-64
2021/01/30 01:52:30;;;;;;;22.40;8.70;;;;;;;6.37;100.00;100132.47;5221878;28;20025;-64
2021/01/30 01:55:06;;;;;;;;;;;;;;;6.45;100.00;100136.03;5221444;28;20024;-64
2021/01/30 01:57:44;;;;;;;24.77;7.88;;;;;;;6.42;100.00;100131.00;5221881;28;19932;-63
2021/01/30 02:00:15;;;;;;;15.98;6.20;;;;;;;6.33;100.00;100133.81;5221048;28;20021;-63
2021/01/30 02:02:48;;;;;;;20.65;6.68;;;;;;;6.15;100.00;100139.16;5219154;28;20029;-63
2021/01/30 02:05:30;;;;;;;20.95;7.18;;;;;;;6.12;100.00;100123.47;5211646;28;20032;-63
2021/01/30 02:08:04;;;;;;;17.58;7.72;;;;;;;6.06;100.00;100126.78;5221834;28;20029;-63
2021/01/30 02:10:39;;;;;;;20.10;8.15;;;;;;;6.01;100.00;100129.06;5221108;28;20021;-63
2021/01/30 02:13:14;;;;;;;25.88;9.27;;;;;;;5.90;100.00;100122.97;5221138;28;20021;-64
2021/01/30 02:15:47;;;;;;;26.27;9.98;;;;;;;5.81;100.00;100131.03;5221108;28;20416;-64
2021/01/30 02:18:40;;;;;;;26.05;9.70;;;;;;;5.71;100.00;100136.41;5219270;28;20029;-63
2021/01/30 02:21:39;;;;;;;29.95;9.70;;;;;;;5.69;100.00;100122.44;5210435;28;20075;-64
2021/01/30 02:24:34;;;;;;;25.05;11.20;;;;;;;5.60;100.00;100128.69;5220755;28;20106;-64
2021/01/30 02:27:55;;;;;;;30.92;11.43;;;;;;;5.57;100.00;100128.97;5220504;28;20040;-64
2021/01/30 02:30:26;;;;;;;34.65;12.18;;;;;;;5.54;100.00;100132.78;5220882;28;20032;-64
2021/01/30 02:33:43;;;;;;;36.35;14.40;;;;;;;5.52;100.00;100123.25;5220840;28;20166;-63
2021/01/30 02:36:43;;;;;;;29.17;14.23;;;;;;;5.37;100.00;100121.16;5220750;28;20029;-64
2021/01/30 02:39:18;;;;;;;34.67;13.90;;;;;;;5.26;100.00;100107.22;5221462;28;20025;-64
2021/01/30 02:41:57;;;;;;;20.92;9.70;;;;;;;5.07;100.00;100127.63;5219794;28;20124;-62
2021/01/30 02:44:32;;;;;;;22.25;9.95;;;;;;;4.97;100.00;100118.88;5220389;28;20048;-62
2021/01/30 02:47:07;;;;;;;27.27;9.82;;;;;;;4.88;100.00;100125.06;5221005;28;20632;-64
2021/01/30 02:49:44;;;;;;;23.80;10.80;;;;;;;4.84;100.00;100129.81;5221085;28;20480;-64
2021/01/30 02:52:22;;;;;;;28.08;11.85;;;;;;;4.83;100.00;100128.16;5220444;28;20036;-63
2021/01/30 02:54:56;;;;;;;22.65;11.82;;;;;;;4.80;100.00;100131.09;5219981;28;20047;-63
2021/01/30 02:57:29;;;;;;;32.05;14.65;;;;;;;4.67;100.00;100136.75;5220824;28;20025;-64
2021/01/30 03:00:05;;;;;;;35.28;13.45;;;;;;;4.31;100.00;100135.72;5220622;28;20052;-63
2021/01/30 03:02:37;;;;;;;33.47;13.88;;;;;;;4.12;100.00;100141.09;5218710;28;20021;-63
2021/01/30 03:05:10;;;;;;;29.05;13.73;;;;;;;3.90;100.00;100140.41;5208038;28;20082;-63
2021/01/30 03:07:54;;;;;;;30.17;14.00;;;;;;;3.68;100.00;100140.69;5220725;28;20052;-64
2021/01/30 03:10:31;;;;;;;39.83;15.98;;;;;;;3.53;100.00;100134.97;5231592;28;20020;-63
2021/01/30 03:13:14;;;;;;;32.92;13.60;;;;;;;3.36;100.00;100138.25;5219810;28;20441;-64
2021/01/30 03:16:03;;;;;;;37.00;14.88;;;;;;;3.29;100.00;100114.13;5220371;28;20497;-63
2021/01/30 03:18:36;;;;;;;43.63;13.82;;;;;;;3.20;100.00;100132.66;5213963;28;20025;-64
2021/01/30 03:21:10;;;;;;;35.90;14.70;;;;;;;3.06;100.00;100132.09;5205927;28;20547;-63
2021/01/30 03:23:40;;;;;;;42.28;17.58;;;;;;;3.00;100.00;100137.06;5219233;28;20024;-64
2021/01/30 03:26:16;;;;;;;42.67;15.63;;;;;;;2.93;100.00;100128.00;5220392;28;20043;-64
2021/01/30 03:28:48;;;;;;;38.35;14.38;;;;;;;2.84;100.00;100119.88;5220476;28;20027;-64
2021/01/30 03:31:18;;;;;;;38.05;15.10;;;;;;;2.81;100.00;100129.88;5220319;28;20032;-63
2021/01/30 03:33:49;;;;;;;36.58;15.75;;;;;;;2.82;100.00;100131.59;5219766;28;20025;-64
2021/01/30 03:36:19;;;;;;;39.40;15.45;;;;;;;2.77;100.00;100136.44;5224066;28;20025;-63
2021/01/30 03:38:50;;;;;;;46.70;16.85;;;;;;;2.77;100.00;100132.00;5223808;28;20021;-63
2021/01/30 03:41:20;;;;;;;45.58;14.98;;;;;;;2.77;100.00;100136.44;5224886;28;20021;-63
2021/01/30 03:43:51;;;;;;;39.33;14.77;;;;;;;2.76;100.00;100138.25;5224085;28;20063;-63
2021/01/30 03:46:21;;;;;;;40.80;14.93;;;;;;;2.71;100.00;100135.19;5224350;28;20028;-63
2021/01/30 03:48:52;;;;;;;34.42;14.02;;;;;;;2.73;100.00;100124.44;5224477;28;20043;-63
2021/01/30 03:51:22;;;;;;;37.83;15.00;;;;;;;2.66;100.00;100129.44;5223991;28;20453;-63
2021/01/30 03:53:53;;;;;;;38.90;14.25;;;;;;;2.68;100.00;100135.44;5224310;28;20496;-64
2021/01/30 03:56:23;;;;;;;50.33;13.93;;;;;;;2.56;100.00;100142.63;5224192;28;20504;-64
2021/01/30 03:58:54;;;;;;;34.53;13.88;;;;;;;2.53;100.00;100136.75;5224535;28;20374;-62
2021/01/30 04:01:32;;;;;;;30.95;12.52;;;;;;;2.46;100.00;100140.88;5223901;28;20084;-63
2021/01/30 04:04:03;;;;;;;36.55;13.70;;;;;;;2.42;100.00;100136.84;5210639;28;20021;-64
2021/01/30 04:06:33;;;;;;;28.60;11.38;;;;;;;2.26;100.00;100143.44;5223822;28;20481;-63
2021/01/30 04:09:06;;;;;;;25.92;10.07;;;;;;;2.10;100.00;100143.03;5224336;28;20028;-63
2021/01/30 04:11:39;;;;;;;17.98;8.80;;;;;;;1.97;100.00;100134.47;5211379;28;20497;-63
2021/01/30 04:14:10;;;;;;;21.65;9.05;;;;;;;1.90;100.00;100142.06;5222806;28;20033;-64
2021/01/30 04:16:40;;;;;;;23.50;9.57;;;;;;;1.83;100.00;100140.06;5223768;28;20027;-62
2021/01/30 04:19:11;;;;;;;24.48;9.48;;;;;;;1.86;100.00;100145.09;5217011;28;20104;-64
2021/01/30 04:21:41;;;;;;;23.73;10.13;;;;;;;1.81;100.00;100143.69;5214914;28;20033;-64
2021/01/30 04:24:12;;;;;;;23.92;9.63;;;;;;;1.82;100.00;100149.81;5222165;28;20040;-64
2021/01/30 04:26:47;;;;;;;27.98;9.48;;;;;;;1.78;100.00;100146.56;5224201;28;20366;-64
2021/01/30 04:29:17;;;;;;;31.63;10.20;;;;;;;1.72;100.00;100155.03;5223792;28;20079;-64
2021/01/30 04:31:53;;;;;;;29.30;11.07;;;;;;;1.65;100.00;100148.53;5223597;28;20028;-63
2021/01/30 04:34:25;;;;;;;27.95;10.85;;;;;;;1.68;100.00;100144.81;5221512;28;20025;-63
2021/01/30 04:36:55;;;;;;;29.40;11.63;;;;;;;1.67;100.00;100151.09;5223879;28;20468;-63
2021/01/30 04:39:26;;;;;;;29.58;11.68;;;;;;;1.65;100.00;100150.34;5223855;28;20108;-63
2021/01/30 04:42:10;;;;;;;25.02;11.18;;;;;;;1.62;100.00;100151.47;5223868;28;20025;-63
2021/01/30 04:44:56;;;;;;;35.63;13.40;;;;;;;1.61;100.00;100149.78;5222812;28;20050;-63
2021/01/30 04:47:44;;;;;;;28.77;11.80;;;;;;;1.68;100.00;100148.31;5223496;28;20060;-63
2021/01/30 04:50:21;;;;;;;34.70;12.70;;;;;;;1.69;100.00;100149.97;5224029;28;20035;-64
2021/01/30 04:53:11;;;;;;;27.77;11.13;;;;;;;1.69;100.00;100141.22;5222369;28;20414;-64
2021/01/30 04:55:48;;;;;;;33.53;12.27;;;;;;;1.68;100.00;100136.88;5223811;28;20028;-64
2021/01/30 04:58:38;;;;;;;31.38;11.85;;;;;;;1.67;100.00;100141.34;5222622;28;20033;-64
2021/01/30 05:01:28;;;;;;;31.80;12.82;;;;;;;1.68;100.00;100147.47;5223144;28;20028;-63
2021/01/30 05:04:04;;;;;;;32.17;12.05;;;;;;;1.68;100.00;100140.38;5209191;28;20120;-63
2021/01/30 05:06:47;;;;;;;34.78;11.93;;;;;;;1.67;100.00;100132.56;5223517;28;20507;-63
2021/01/30 05:09:25;;;;;;;30.23;12.77;;;;;;;1.65;100.00;100124.75;5222797;28;20033;-63
2021/01/30 05:12:02;;;;;;;23.05;10.65;;;;;;;1.54;100.00;100117.69;5223018;28;20021;-63
2021/01/30 05:14:38;;;;;;;25.45;10.60;;;;;;;1.47;100.00;100115.69;5221508;28;20036;-63
2021/01/30 05:17:20;;;;;;;25.02;11.15;;;;;;;1.45;100.00;100109.69;5223244;28;20626;-64
2021/01/30 05:19:58;;;;;;;29.30;12.20;;;;;;;1.43;100.00;100109.00;5222575;28;20027;-64
2021/01/30 05:22:35;;;;;;;26.40;10.43;;;;;;;1.38;100.00;100103.25;5221593;28;20067;-64
2021/01/30 05:25:11;;;;;;;26.13;11.50;;;;;;;1.36;100.00;100106.00;5222679;28;20029;-64
2021/01/30 05:27:47;;;;;;;28.15;12.23;;;;;;;1.36;100.00;100107.81;5222359;28;20112;-64
2021/01/30 05:30:30;;;;;;;29.13;12.13;;;;;;;1.34;100.00;100107.94;5222987;28;20459;-62
2021/01/30 05:33:16;;;;;;;26.58;12.95;;;;;;;1.35;100.00;100099.03;5221033;28;20103;-64
2021/01/30 05:36:06;;;;;;;33.92;12.95;;;;;;;1.38;100.00;100101.44;5222992;28;20163;-64
2021/01/30 05:38:50;;;;;;;29.60;11.95;;;;;;;1.25;100.00;100098.94;5221983;28;20028;-64
2021/01/30 05:41:39;;;;;;;31.02;12.02;;;;;;;1.21;100.00;100097.53;5221822;28;20020;-64
2021/01/30 05:44:28;;;;;;;27.35;12.75;;;;;;;1.18;100.00;100087.19;5208497;28;20290;-62
2021/01/30 05:47:00;;;;;;;31.50;12.55;;;;;;;1.19;100.00;100088.03;5222974;28;20017;-63
2021/01/30 05:49:35;;;;;;;29.52;12.88;;;;;;;1.18;100.00;100084.56;5221637;28;20041;-62
2021/01/30 05:52:14;;;;;;;29.80;12.38;;;;;;;1.15;100.00;100084.78;5222590;28;20139;-64
2021/01/30 05:54:45;;;;;;;40.95;12.85;;;;;;;1.14;100.00;100080.47;5220894;28;20028;-64
2021/01/30 05:57:17;;;;;;;31.88;14.55;;;;;;;1.07;100.00;100084.59;5222115;28;20031;-64
2021/01/30 05:59:52;;;;;;;35.33;15.43;;;;;;;1.06;100.00;100082.94;5221532;28;20452;-64
2021/01/30 06:02:26;;;;;;;34.63;13.98;;;;;;;1.02;100.00;100079.69;5222236;28;20056;-62
2021/01/30 06:04:57;;;;;;;36.50;14.25;;;;;;;0.94;100.00;100068.88;5207672;28;20405;-63
2021/01/30 06:07:35;;;;;;;36.63;14.88;;;;;;;0.96;100.00;100076.72;5222193;28;20472;-63
2021/01/30 06:10:28;;;;;;;43.38;16.00;;;;;;;0.93;100.00;100074.31;5230368;28;20119;-63
2021/01/30 06:13:14;;;;;;;41.33;16.50;;;;;;;0.93;100.00;100084.88;5222350;28;20043;-64
2021/01/30 06:15:48;;;;;;;36.13;15.20;;;;;;;0.93;100.00;100084.88;5221856;28;20043;-64
2021/01/30 06:18:30;;;;;;;40.88;16.40;;;;;;;0.93;100.00;100069.84;5218910;28;20032;-64
2021/01/30 06:21:04;;;;;;;45.47;16.48;;;;;;;0.93;100.00;100069.84;5210064;28;20482;-64
2021/01/30 06:23:36;;;;;;;46.10;17.40;;;;;;;0.91;100.00;100074.44;5220545;28;20033;-63
2021/01/30 06:26:15;;;;;;;47.75;18.33;;;;;;;0.90;100.00;100082.47;5221674;28;20512;-63
2021/01/30 06:28:56;;;;;;;46.42;16.98;;;;;;;0.89;100.00;100078.16;5221029;28;20032;-62
2021/01/30 06:31:33;;;;;;;50.50;19.48;;;;;;;0.88;100.00;100079.09;5221368;28;20027;-63
2021/01/30 06:34:31;;;;;;;51.03;19.92;;;;;;;0.88;100.00;100085.22;5220485;28;20524;-64
2021/01/30 06:37:07;;;;;;;47.38;18.92;;;;;;;0.92;100.00;100077.91;5221142;28;20036;-64
2021/01/30 06:39:43;;;;;;;53.78;20.52;;;;;;;0.95;100.00;100081.13;5220449;28;20111;-64
2021/01/30 06:42:25;;;;;;;46.58;18.73;;;;;;;0.89;100.00;100091.34;5221173;28;20056;-63
2021/01/30 06:45:06;;;;;;;49.17;18.83;;;;;;;0.87;100.00;100088.00;5220807;28;20428;-63
2021/01/30 06:47:50;;;;;;;54.20;19.60;;;;;;;0.88;100.00;100094.97;5221314;28;20496;-63
2021/01/30 06:50:34;;;;;;;48.80;19.55;;;;;;;0.86;100.00;100091.63;5220919;28;20032;-63
2021/01/30 06:53:19;;;;;;;55.60;20.88;;;;;;;0.84;100.00;100082.94;5220474;28;20082;-64
2021/01/30 06:55:50;;;;;;;55.55;20.42;;;;;;;0.80;100.00;100082.34;5220761;28;20382;-63
2021/01/30 06:58:38;;;;;;;56.17;20.45;;;;;;;0.81;100.00;100088.50;5220604;28;20043;-63
2021/01/30 07:01:12;;;;;;;52.65;19.42;;;;;;;0.84;100.00;100089.06;5220531;28;20029;-66
2021/01/30 07:03:59;;;;;;;51.05;18.40;;;;;;;0.88;100.00;100087.03;5210497;28;20029;-66
2021/01/30 07:06:42;;;;;;;51.45;19.20;;;;;;;0.83;100.00;100081.28;5219970;28;20021;-66
2021/01/30 07:09:35;;;;;;;46.33;19.30;;;;;;;0.87;100.00;100082.72;5219540;28;20036;-66
2021/01/30 07:12:09;;;;;;;45.10;16.98;;;;;;;0.87;100.00;100082.72;5221144;28;20163;-64
2021/01/30 07:15:11;;;;;;;44.80;16.30;;;;;;;0.83;100.00;100082.13;5219639;28;20021;-66
2021/01/30 07:17:42;;;;;;;45.17;16.42;;;;;;;0.88;100.00;100084.38;5221395;28;20025;-66
2021/01/30 07:20:47;;;;;;;46.15;17.23;;;;;;;0.81;100.00;100081.41;5203948;28;20060;-66
2021/01/30 07:23:30;;;;;;;42.63;17.33;;;;;;;0.82;100.00;100079.59;5210204;28;20485;-66
2021/01/30 07:26:09;;;;;;;42.67;16.67;;;;;;;0.83;100.00;100086.56;5220398;28;20013;-66
2021/01/30 07:28:45;;;;;;;47.60;17.02;;;;;;;0.88;100.00;100089.66;5220912;28;20414;-66
2021/01/30 07:31:27;;;;;;;47.03;17.63;;;;;;;0.86;100.00;100089.81;5220441;28;20017;-66
2021/01/30 07:34:06;;;;;;;46.10;16.88;;;;;;;0.83;100.00;100084.75;5220003;28;20036;-65
2021/01/30 07:36:50;;;;;;;49.42;18.50;;;;;;;0.80;100.00;100084.16;5220555;28;20392;-66
2021/01/30 07:39:31;;;;;;;51.58;18.45;;;;;;;0.75;100.00;100080.09;5220633;28;20384;-64
2021/01/30 07:42:08;;;;;;;57.03;20.10;;;;;;;0.71;100.00;100083.09;5220180;28;20077;-64
2021/01/30 07:44:57;;;;;;;48.63;18.00;;;;;;;0.71;100.00;100088.38;5220174;28;20373;-64
2021/01/30 07:47:52;;;;;;;47.40;16.45;;;;;;;0.71;100.00;100083.94;5221086;28;20025;-63
2021/01/30 07:50:27;;;;;;;45.83;16.90;;;;;;;0.64;100.00;100077.44;5219640;28;20036;-62
2021/01/30 07:53:06;;;;;;;49.95;19.08;;;;;;;0.70;100.00;100086.69;5219817;28;20067;-63
2021/01/30 07:55:39;;;;;;;57.92;19.98;;;;;;;0.64;100.00;100076.63;5220432;28;20025;-64
2021/01/30 07:58:30;;;;;;;52.08;19.98;;;;;;;0.62;100.00;100073.28;5220726;28;20423;-63
2021/01/30 08:01:28;;;;;;;56.35;20.48;;;;;;;0.65;100.00;100068.59;5219888;28;20040;-62
2021/01/30 08:04:14;;;;;;;53.00;19.02;;;;;;;0.59;100.00;100073.50;5207359;28;20029;-63
2021/01/30 08:06:52;;;;;;;55.58;21.10;;;;;;;0.59;100.00;100061.13;5208683;28;20028;-63
2021/01/30 08:09:34;;;;;;;54.58;19.15;;;;;;;0.56;100.00;100065.84;5220354;28;20029;-63
2021/01/30 08:12:15;;;;;;;63.83;21.52;;;;;;;0.50;100.00;100062.72;5210816;28;20029;-62
2021/01/30 08:15:07;;;;;;;55.72;19.27;;;;;;;0.53;100.00;100061.63;5213124;28;20021;-64
2021/01/30 08:17:51;;;;;;;59.40;21.52;;;;;;;0.50;100.00;100056.59;5214767;28;20025;-63
2021/01/30 08:20:39;;;;;;;56.75;20.50;;;;;;;0.46;100.00;100056.00;5204527;28;20013;-63
2021/01/30 08:23:31;;;;;;;55.63;20.83;;;;;;;0.43;100.00;100053.59;5222725;28;20671;-64
2021/01/30 08:26:10;;;;;;;69.28;23.23;;;;;;;0.33;100.00;100059.72;5223502;28;20105;-62
2021/01/30 08:28:52;;;;;;;63.13;21.60;;;;;;;0.34;100.00;100061.41;5224366;28;20112;-63
2021/01/30 08:31:54;;;;;;;56.33;20.00;;;;;;;0.36;100.00;100055.06;5223305;28;20036;-63
2021/01/30 08:34:26;;;;;;;55.13;20.08;;;;;;;0.35;100.00;100060.44;5211222;28;20444;-63
2021/01/30 08:36:59;;;;;;;62.55;21.35;;;;;;;0.33;100.00;100052.66;5223877;28;20029;-63
2021/01/30 08:39:33;;;;;;;60.95;22.27;;;;;;;0.29;100.00;100050.38;5220448;28;20032;-62
2021/01/30 08:42:17;;;;;;;53.60;20.85;;;;;;;0.37;100.00;100053.25;5211245;28;20021;-64
2021/01/30 08:44:54;;;;;;;55.03;19.92;;;;;;;0.35;100.00;100050.75;5220525;28;20020;-63
2021/01/30 08:47:28;;;;;;;56.08;20.95;;;;;;;0.28;100.00;100049.53;5223339;28;20029;-64
2021/01/30 08:50:12;;;;;;;56.88;19.92;;;;;;;0.29;100.00;100048.56;5222858;28;20025;-64
2021/01/30 08:52:55;;;;;;;56.63;20.55;;;;;;;0.28;100.00;100040.78;5222618;28;20025;-64
2021/01/30 08:55:43;;;;;;;57.65;20.80;;;;;;;0.27;100.00;100039.09;5210238;28;20489;-64
2021/01/30 08:58:32;;;;;;;60.25;21.00;;;;;;;0.28;100.00;100040.78;5223363;28;20110;-63
2021/01/30 09:01:06;;;;;;;53.65;21.15;;;;;;;0.25;100.00;100034.78;5222549;28;20553;-64
2021/01/30 09:03:41;;;;;;;54.97;21.15;;;;;;;0.28;100.00;100043.41;5212951;28;20576;-64
2021/01/30 09:06:44;;;;;;;56.33;21.50;;;;;;;0.28;100.00;100043.41;5220241;28;20023;-64
2021/01/30 09:09:21;;;;;;;63.05;22.42;;;;;;;0.28;100.00;100038.13;5223711;28;20429;-64
2021/01/30 09:11:53;;;;;;;60.45;22.23;;;;;;;0.28;100.00;100032.84;5222251;28;20025;-64
2021/01/30 09:14:27;;;;;;;58.33;21.23;;;;;;;0.28;100.00;100038.97;5222278;28;20104;-62
2021/01/30 09:16:57;;;;;;;59.25;21.42;;;;;;;0.23;100.00;100034.06;5223185;28;20033;-62
2021/01/30 09:19:51;;;;;;;66.82;22.65;;;;;;;0.25;100.00;100034.78;5213878;28;20017;-64
2021/01/30 09:22:38;;;;;;;60.53;21.92;;;;;;;0.25;100.00;100041.84;5218760;28;20033;-64
2021/01/30 09:25:19;;;;;;;62.60;23.77;;;;;;;0.22;100.00;100040.28;5222720;28;20534;-64
2021/01/30 09:27:59;;;;;;;58.72;21.52;;;;;;;0.23;100.00;100036.69;5223007;28;20460;-64
2021/01/30 09:30:35;;;;;;;61.85;21.83;;;;;;;0.23;100.00;100036.69;5221793;28;20331;-63
2021/01/30 09:33:25;;;;;;;61.88;22.98;;;;;;;0.26;100.00;100035.63;5220998;28;20033;-64
2021/01/30 09:36:13;;;;;;;66.57;23.70;;;;;;;0.25;100.00;100040.06;5222250;28;20397;-64
2021/01/30 09:38:47;;;;;;;64.72;22.83;;;;;;;0.28;100.00;100036.34;5222095;28;20021;-64
2021/01/30 09:41:23;;;;;;;74.25;25.38;;;;;;;0.30;100.00;100030.94;5221785;28;20393;-65
2021/01/30 09:44:19;;;;;;;65.00;24.40;;;;;;;0.23;100.00;100034.06;5208911;28;20159;-64
2021/01/30 09:46:53;;;;;;;68.07;24.27;;;;;;;0.24;100.00;100030.44;5222060;28;20720;-64
2021/01/30 09:49:32;;;;;;;64.37;25.17;;;;;;;0.24;100.00;100030.44;5222279;28;20075;-64
2021/01/30 09:52:05;;;;;;;68.22;24.27;;;;;;;0.25;100.00;100033.94;5221735;28;20040;-64
2021/01/30 09:54:36;;;;;;;68.32;23.42;;;;;;;0.26;100.00;100038.25;5221555;28;20033;-64
2021/01/30 09:57:15;;;;;;;69.18;23.60;;;;;;;0.28;100.00;100036.34;5222233;28;20024;-65
2021/01/30 09:59:46;;;;;;;65.47;22.90;;;;;;;0.33;100.00;100030.69;5221511;28;20029;-65
2021/01/30 10:02:20;;;;;;;69.38;26.02;;;;;;;0.28;100.00;100023.16;5221651;28;20057;-65
2021/01/30 10:05:08;;;;;;;68.72;24.83;;;;;;;0.30;100.00;100030.94;5207491;28;20028;-64
2021/01/30 10:07:40;;;;;;;65.90;23.23;;;;;;;0.32;100.00;100029.88;5221719;28;20032;-65
2021/01/30 10:10:24;;;;;;;75.75;26.33;;;;;;;0.32;100.00;100027.22;5221489;28;20428;-64
2021/01/30 10:12:57;;;;;;;69.70;25.23;;;;;;;0.39;100.00;100019.66;5220991;28;20028;-64
2021/01/30 10:15:33;;;;;;;73.90;25.50;;;;;;;0.40;100.00;100010.78;5221477;28;20025;-64
2021/01/30 10:18:10;;;;;;;68.25;25.48;;;;;;;0.41;100.00;100018.59;5221075;28;20112;-64
2021/01/30 10:20:44;;;;;;;69.63;25.50;;;;;;;0.39;100.00;100025.78;5216448;28;20032;-64
2021/01/30 10:23:34;;;;;;;73.23;27.87;;;;;;;0.41;100.00;100015.13;5221080;28;20029;-64
2021/01/30 10:26:08;;;;;;;68.85;24.98;;;;;;;0.47;100.00;100010.19;5207646;28;20029;-65
2021/01/30 10:28:41;;;;;;;67.93;24.27;;;;;;;0.50;100.00;100003.81;5220720;28;20446;-64
2021/01/30 10:31:14;;;;;;;70.28;26.65;;;;;;;0.49;100.00;100004.78;5221614;28;20485;-64
2021/01/30 10:33:49;;;;;;;67.85;25.40;;;;;;;0.44;100.00;100007.78;5218992;28;20108;-64
2021/01/30 10:36:21;;;;;;;;;;;;;;;0.49;100.00;99999.50;5222148;28;20032;-67
2021/01/30 10:38:53;;;;;;;64.60;24.13;;;;;;;0.47;100.00;99994.34;5221427;28;19909;-67
2021/01/30 10:41:27;;;;;;;72.70;25.23;;;;;;;0.54;100.00;99992.03;5220761;28;20043;-64
2021/01/30 10:44:02;;;;;;;68.13;25.65;;;;;;;0.52;100.00;99997.44;5207848;28;20087;-66
2021/01/30 10:46:37;;;;;;;;;;;;;;;0.56;100.00;99990.13;5221850;28;20558;-66
2021/01/30 10:49:20;;;;;;;70.70;27.40;;;;;;;0.59;100.00;99989.03;5221524;28;20135;-66
2021/01/30 10:52:02;;;;;;;64.60;25.33;;;;;;;0.63;100.00;99977.28;5219900;28;20464;-66
2021/01/30 10:54:33;;;;;;;75.55;27.95;;;;;;;0.68;100.00;99978.56;5220767;28;20033;-66
2021/01/30 10:57:17;;;;;;;68.47;25.20;;;;;;;0.74;100.00;99972.78;5221145;28;20382;-66
2021/01/30 10:59:53;;;;;;;72.53;26.30;;;;;;;0.77;100.00;99975.19;5221160;28;20024;-65
2021/01/30 11:02:34;;;;;;;63.58;26.50;;;;;;;0.80;100.00;99975.91;5221175;28;20021;-65
2021/01/30 11:05:22;;;;;;;69.07;25.75;;;;;;;0.77;100.00;99983.13;5208570;28;20048;-66
2021/01/30 11:07:57;;;;;;;69.13;25.13;;;;;;;0.74;100.00;99974.59;5220832;28;20496;-65
2021/01/30 11:10:36;;;;;;;71.57;26.35;;;;;;;0.73;100.00;99976.41;5220626;28;20025;-65
2021/01/30 11:13:11;;;;;;;69.32;26.48;;;;;;;0.81;100.00;99973.16;5207213;28;20052;-65
2021/01/30 11:15:43;;;;;;;;;;;;;;;0.87;100.00;99977.09;5221110;28;20387;-66
2021/01/30 11:18:28;;;;;;;68.63;26.00;;;;;;;0.86;100.00;99959.56;5218859;28;19999;-65
2021/01/30 11:21:01;;;;;;;70.45;27.05;;;;;;;0.90;100.00;99958.34;5208053;28;20021;-66
2021/01/30 11:23:46;;;;;;;64.07;25.15;;;;;;;0.85;100.00;99957.88;5219978;28;20028;-64
2021/01/30 11:26:19;;;;;;;;;;;;;;;0.90;100.00;99956.53;5221174;28;20025;-64
2021/01/30 11:28:50;;;;;;;69.93;26.02;;;;;;;0.94;100.00;99955.31;5220885;28;20268;-66
2021/01/30 11:31:20;;;;;;;69.60;27.13;;;;;;;0.92;100.00;99953.78;5220052;28;20029;-65
2021/01/30 11:33:54;;;;;;;63.92;25.85;;;;;;;0.90;100.00;99951.25;5219797;28;20021;-66
2021/01/30 11:36:25;;;;;;;70.72;27.30;;;;;;;0.92;100.00;99940.56;5220832;28;20098;-66
2021/01/30 11:38:59;;;;;;;68.38;26.02;;;;;;;0.94;100.00;99938.63;5220447;28;20040;-66
2021/01/30 11:41:29;;;;;;;70.50;27.50;;;;;;;0.94;100.00;99936.00;5219949;28;20393;-65
2021/01/30 11:44:00;;;;;;;65.57;26.08;;;;;;;0.99;100.00;99941.72;5219539;28;20025;-66
2021/01/30 11:46:30;;;;;;;60.45;25.27;;;;;;;1.01;100.00;99938.03;5220388;28;20017;-66
2021/01/30 11:49:01;;;;;;;60.72;25.17;;;;;;;0.96;100.00;99936.72;5220453;28;20036;-66
2021/01/30 11:51:31;;;;;;;58.13;25.15;;;;;;;1.01;100.00;99931.91;5219914;28;20040;-66
2021/01/30 11:54:02;;;;;;;62.05;24.02;;;;;;;1.07;100.00;99939.31;5219111;28;20041;-66
2021/01/30 11:56:33;;;;;;;59.47;23.60;;;;;;;1.04;100.00;99916.63;5223626;28;20107;-66
2021/01/30 11:59:04;;;;;;;58.15;24.23;;;;;;;1.04;100.00;99918.41;5224397;28;20029;-65
2021/01/30 12:01:35;;;;;;;48.78;21.20;;;;;;;1.02;100.00;99908.00;5223710;28;20025;-66